Time;durP1;ratioP1;P1;durP2;ratioP2;P2;SDS_P1;SDS_P2;PMS_P1;PMS_P2;Temp;Humidity;BMP_temperature;BMP_pressure;BME280_temperature;BME280_humidity;BME280_pressure;Samples;Min_cycle;Max_cycle;Signal;HPM_P1;HPM_P2
2022/01/20 00:02:21;;;;;;;18.17;3.25;;;;;;;;;;5071582;28;20420;-77
2022/01/20 00:04:52;;;;;;;16.98;3.00;;;;;;;;;;5086789;28;20511;-78
2022/01/20 00:07:30;;;;;;;16.37;2.80;;;;;;;;;;5088828;28;20989;-77
2022/01/20 00:25:53;;;;;;;15.65;2.78;;;;;;;;;;5090404;28;20433;-78
2022/01/20 00:26:40;;;;;;;15.15;2.97;;;;;;;;;;5090256;28;20413;-78
2022/01/20 00:29:12;;;;;;;18.77;3.17;;;;;;;;;;5093838;28;20463;-78
2022/01/20 00:32:01;;;;;;;17.02;3.53;;;;;;;;;;5053997;28;20422;-78
2022/01/20 00:34:42;;;;;;;18.10;3.15;;;;;;;;;;5081864;28;20418;-78
2022/01/20 00:37:16;;;;;;;14.48;2.83;;;;;;;;;;5089510;28;20416;-79
2022/01/20 00:39:42;;;;;;;12.55;2.95;;;;;;;;;;5057577;28;20452;-79
2022/01/20 00:42:08;;;;;;;15.73;2.58;;;;;;;;;;5083636;28;20413;-78
2022/01/20 00:44:34;;;;;;;14.02;2.50;;;;;;;;;;5067692;28;20416;-78
2022/01/20 00:47:01;;;;;;;20.27;3.17;;;;;;;;;;5085997;28;20495;-78
2022/01/20 00:49:27;;;;;;;16.70;2.90;;;;;;;;;;5098592;28;20431;-79
2022/01/20 00:51:53;;;;;;;15.95;2.67;;;;;;;;;;5079618;28;20413;-79
2022/01/20 00:54:20;;;;;;;16.23;2.85;;;;;;;;;;5085415;28;20441;-78
2022/01/20 00:56:46;;;;;;;18.05;2.58;;;;;;;;;;5081909;28;20423;-79
2022/01/20 00:59:12;;;;;;;17.92;3.20;;;;;;;;;;5076443;28;20535;-79
2022/01/20 01:01:39;;;;;;;16.67;3.30;;;;;;;;;;5067709;28;20422;-78
2022/01/20 01:04:05;;;;;;;16.20;2.83;;;;;;;;;;5075391;28;20424;-79
2022/01/20 01:09:05;;;;;;;15.35;2.78;;;3.80;99.90;;;;;;5088459;28;20441;-79
2022/01/20 01:11:32;;;;;;;15.27;3.17;;;;;;;;;;5089177;28;20428;-78
2022/01/20 01:14:00;;;;;;;17.83;3.20;;;;;;;;;;5091005;28;20515;-79
2022/01/20 01:16:38;;;;;;;13.15;2.85;;;;;;;;;;5085519;28;20406;-79
2022/01/20 01:22:03;;;;;;;11.60;2.42;;;;;;;;;;5117826;27;20459;-79
2022/01/20 01:24:30;;;;;;;16.88;2.58;;;;;;;;;;5086201;28;20804;-79
2022/01/20 01:26:56;;;;;;;13.68;2.70;;;;;;;;;;5064399;28;20818;-78
2022/01/20 01:29:55;;;;;;;9.68;2.00;;;;;;;;;;5077630;28;20420;-77
2022/01/20 01:32:21;;;;;;;7.82;2.10;;;;;;;;;;5087524;28;20812;-77
2022/01/20 01:34:51;;;;;;;8.82;1.73;;;;;;;;;;5093026;28;20501;-77
2022/01/20 01:40:12;;;;;;;11.27;2.10;;;;;;;;;;5057752;28;20422;-78
2022/01/20 01:42:46;;;;;;;9.88;2.35;;;;;;;;;;5081989;28;20764;-77
2022/01/20 01:45:15;;;;;;;10.30;1.70;;;;;;;;;;5087114;28;20489;-78
2022/01/20 01:47:41;;;;;;;11.02;2.28;;;;;;;;;;5084487;28;20475;-78
2022/01/20 01:50:08;;;;;;;12.80;2.22;;;;;;;;;;5073749;28;20449;-78
2022/01/20 01:52:34;;;;;;;8.90;1.90;;;;;;;;;;5086945;28;20432;-77
2022/01/20 01:55:00;;;;;;;12.10;2.30;;;;;;;;;;5067234;28;20426;-77
2022/01/20 01:57:28;;;;;;;13.40;2.53;;;;;;;;;;5071494;28;20418;-77
2022/01/20 01:59:54;;;;;;;13.13;2.55;;;;;;;;;;5078448;28;20551;-77
2022/01/20 02:02:20;;;;;;;13.63;2.47;;;;;;;;;;5085191;28;20426;-77
2022/01/20 02:04:48;;;;;;;13.80;2.22;;;;;;;;;;5083719;28;20416;-77
2022/01/20 02:18:13;;;;;;;12.50;2.77;;;;;;;;;;5070285;28;20419;-77
2022/01/20 02:20:40;;;;;;;13.50;2.55;;;;;;;;;;5109962;27;20424;-77
2022/01/20 02:23:06;;;;;;;12.43;2.80;;;;;;;;;;5055246;28;20499;-77
2022/01/20 02:25:34;;;;;;;10.70;2.65;;;;;;;;;;5066928;28;20413;-77
2022/01/20 02:28:01;;;;;;;12.85;2.33;;;;;;;;;;5086517;28;20413;-77
2022/01/20 02:30:28;;;;;;;11.57;2.42;;;;;;;;;;5072993;28;20411;-78
2022/01/20 02:33:07;;;;;;;10.63;1.90;;;;;;;;;;5068905;28;20418;-79
2022/01/20 02:35:40;;;;;;;12.98;2.30;;;;;;;;;;5067636;28;20434;-79
2022/01/20 02:38:22;;;;;;;13.02;2.50;;;;;;;;;;5077238;28;20977;-78
2022/01/20 02:46:04;;;;;;;0.50;0.40;;;;;;;;;;5089053;28;20409;-78
2022/01/20 02:48:30;;;;;;;0.23;0.23;;;;;;;;;;5093861;28;20410;-78
2022/01/20 02:50:57;;;;;;;0.40;0.30;;;;;;;;;;5086198;28;21555;-78
2022/01/20 02:53:23;;;;;;;0.30;0.30;;;;;;;;;;5065097;28;20428;-78
2022/01/20 02:55:50;;;;;;;2.00;1.02;;;;;;;;;;5064764;28;20496;-78
2022/01/20 02:58:16;;;;;;;0.28;0.28;;;;;;;;;;5065876;28;20458;-77
2022/01/20 03:00:42;;;;;;;0.10;0.10;;;;;;;;;;5087987;28;20931;-78
2022/01/20 03:03:08;;;;;;;0.30;0.30;;;;;;;;;;5092530;28;20428;-78
2022/01/20 03:05:35;;;;;;;1.65;0.55;;;;;;;;;;5083009;28;20992;-78
2022/01/20 03:08:01;;;;;;;0.43;0.43;;;;;;;;;;5088092;28;20785;-79
2022/01/20 03:10:28;;;;;;;0.80;0.60;;;3.50;99.90;;;;;;5087009;28;20417;-79
2022/01/20 03:12:55;;;;;;;0.30;0.30;;;;;;;;;;5067456;28;20415;-79
2022/01/20 03:15:22;;;;;;;1.08;1.08;;;;;;;;;;5062028;28;20548;-78
2022/01/20 03:17:48;;;;;;;1.50;1.13;;;;;;;;;;5065833;28;20529;-79
2022/01/20 03:20:14;;;;;;;2.60;0.80;;;;;;;;;;5067734;28;20401;-79
2022/01/20 03:22:40;;;;;;;1.30;1.20;;;;;;;;;;5088014;28;20445;-79
2022/01/20 03:25:06;;;;;;;0.80;0.80;;;;;;;;;;5087115;28;20402;-79
2022/01/20 03:27:33;;;;;;;0.50;0.50;;;;;;;;;;5086428;28;21160;-79
2022/01/20 03:29:59;;;;;;;0.40;0.40;;;;;;;;;;5087207;28;20449;-79
2022/01/20 03:32:25;;;;;;;1.40;0.80;;;;;;;;;;5067863;28;20414;-79
2022/01/20 03:34:51;;;;;;;27.90;5.18;;;;;;;;;;5059201;28;20428;-79
2022/01/20 03:37:17;;;;;;;24.70;5.28;;;;;;;;;;5112846;27;20410;-79
2022/01/20 03:39:43;;;;;;;29.55;5.55;;;;;;;;;;5083274;28;20421;-79
2022/01/20 03:42:09;;;;;;;23.65;4.78;;;;;;;;;;5073257;28;20417;-79
2022/01/20 03:44:35;;;;;;;27.98;5.50;;;;;;;;;;5064413;28;20429;-79
2022/01/20 03:47:03;;;;;;;23.38;4.90;;;;;;;;;;5090181;28;20935;-79
2022/01/20 03:52:13;;;;;;;20.75;3.90;;;;;;;;;;5087687;28;20417;-79
2022/01/20 03:54:40;;;;;;;22.55;4.75;;;;;;;;;;5072624;28;20418;-79
2022/01/20 03:57:06;;;;;;;20.27;4.70;;;;;;;;;;5067835;28;20670;-79
2022/01/20 03:59:32;;;;;;;24.77;4.03;;;;;;;;;;5071832;28;20420;-79
2022/01/20 04:01:58;;;;;;;16.00;3.90;;;;;;;;;;5069926;28;20415;-79
2022/01/20 04:04:24;;;;;;;22.10;4.38;;;;;;;;;;5086466;28;20419;-79
2022/01/20 04:06:50;;;;;;;16.70;3.90;;;;;;;;;;5056607;28;20771;-79
2022/01/20 04:09:16;;;;;;;21.70;4.72;;;;;;;;;;5090325;28;20441;-79
2022/01/20 04:11:43;;;;;;;17.08;3.80;;;;;;;;;;5071871;28;20815;-79
2022/01/20 04:14:12;;;;;;;17.40;3.42;;;;;;;;;;5079708;28;20510;-79
2022/01/20 04:16:53;;;;;;;16.70;3.95;;;;;;;;;;5082265;28;20464;-79
2022/01/20 04:19:19;;;;;;;20.13;3.92;;;;;;;;;;5093740;28;20504;-79
2022/01/20 04:21:45;;;;;;;19.00;3.75;;;;;;;;;;5071853;28;20410;-79
2022/01/20 04:24:11;;;;;;;16.90;3.60;;;;;;;;;;5073208;28;20418;-79
2022/01/20 04:26:38;;;;;;;16.80;3.35;;;;;;;;;;5092778;28;20420;-79
2022/01/20 04:29:05;;;;;;;20.08;3.45;;;;;;;;;;5090806;28;20765;-79
2022/01/20 04:31:32;;;;;;;19.80;4.30;;;;;;;;;;5068655;28;20808;-79
2022/01/20 04:33:58;;;;;;;17.23;3.92;;;;;;;;;;5069813;28;20466;-79
2022/01/20 04:36:26;;;;;;;18.80;4.07;;;;;;;;;;5070672;28;20417;-79
2022/01/20 04:38:52;;;;;;;18.90;4.15;;;;;;;;;;5087376;28;20937;-79
2022/01/20 04:41:20;;;;;;;16.23;3.70;;;;;;;;;;5089955;28;20416;-79
2022/01/20 04:43:46;;;;;;;18.00;4.03;;;;;;;;;;5087594;28;20471;-79
2022/01/20 04:46:22;;;;;;;14.70;3.20;;;;;;;;;;5058862;28;21283;-79
2022/01/20 04:59:25;;;;;;;15.70;3.67;;;;;;;;;;5108980;27;20417;-80
2022/01/20 05:01:51;;;;;;;14.57;3.55;;;;;;;;;;5066770;28;20899;-80
2022/01/20 05:04:17;;;;;;;19.25;4.10;;;;;;;;;;5072340;28;20431;-80
2022/01/20 05:06:44;;;;;;;17.10;3.80;;;;;;;;;;5095550;28;20420;-79
2022/01/20 05:09:17;;;;;;;12.45;3.10;;;;;;;;;;5070347;28;20413;-80
2022/01/20 05:11:48;;;;;;;15.77;3.70;;;;;;;;;;5088488;28;20472;-80
2022/01/20 05:14:14;;;;;;;13.02;2.90;;;;;;;;;;5069173;28;20926;-80
2022/01/20 05:16:40;;;;;;;10.52;2.70;;;;;;;;;;5068681;28;20462;-80
2022/01/20 05:19:06;;;;;;;11.88;2.55;;;;;;;;;;5069408;28;20413;-80
2022/01/20 05:21:33;;;;;;;11.15;2.28;;;;;;;;;;5091605;28;20783;-80
2022/01/20 05:23:59;;;;;;;12.32;2.45;;;;;;;;;;5090708;28;20497;-80
2022/01/20 05:26:25;;;;;;;10.65;2.50;;;;;;;;;;5087057;28;20917;-80
2022/01/20 05:28:51;;;;;;;12.85;3.00;;;;;;;;;;5071190;28;20766;-80
2022/01/20 05:31:17;;;;;;;11.23;2.37;;;;;;;;;;5080612;28;20509;-80
2022/01/20 05:33:43;;;;;;;12.68;3.15;;;;;;;;;;5078129;28;20420;-79
2022/01/20 05:36:09;;;;;;;14.47;2.83;;;;;;;;;;5085070;28;20418;-78
2022/01/20 05:38:35;;;;;;;13.18;2.80;;;;;;;;;;5056013;28;20490;-78
2022/01/20 05:41:01;;;;;;;13.23;3.17;;;;;;;;;;5069636;28;20925;-79
2022/01/20 05:43:27;;;;;;;14.23;2.97;;;;;;;;;;5054573;28;20425;-79
2022/01/20 05:45:53;;;;;;;12.25;3.00;;;;;;;;;;5085814;28;20495;-79
2022/01/20 05:48:32;;;;;;;16.40;3.28;;;;;;;;;;5079388;28;20451;-79
2022/01/20 05:50:58;;;;;;;15.65;3.75;;;;;;;;;;5071573;28;20433;-79
2022/01/20 05:53:24;;;;;;;16.27;3.30;;;;;;;;;;5069810;28;20917;-79
2022/01/20 05:55:50;;;;;;;17.43;3.43;;;;;;;;;;5087305;28;20409;-79
2022/01/20 05:58:16;;;;;;;16.27;3.63;;;;;;;;;;5082785;28;20765;-79
2022/01/20 06:00:42;;;;;;;16.33;3.25;;;;;;;;;;5071008;28;20418;-79
2022/01/20 06:05:54;;;;;;;18.75;3.95;;;;;;;;;;5087317;28;20893;-79
2022/01/20 06:08:20;;;;;;;16.73;3.80;;;;;;;;;;5082241;28;20499;-79
2022/01/20 06:10:46;;;;;;;17.50;4.00;;;;;;;;;;5087950;28;20417;-79
2022/01/20 06:13:12;;;;;;;18.52;3.90;;;;;;;;;;5083038;28;20419;-78
2022/01/20 06:15:39;;;;;;;15.45;3.95;;;;;;;;;;5071821;28;20473;-79
2022/01/20 06:18:05;;;;;;;15.98;3.63;;;;;;;;;;5109028;27;20507;-79
2022/01/20 06:20:32;;;;;;;13.75;3.60;;;;;;;;;;5085996;28;20421;-79
2022/01/20 06:22:58;;;;;;;13.98;3.53;;;;;;;;;;5087574;28;20422;-79
2022/01/20 06:25:24;;;;;;;16.97;3.70;;;;;;;;;;5081460;28;20410;-77
2022/01/20 06:27:50;;;;;;;12.38;3.20;;;;;;;;;;5067691;28;20886;-79
2022/01/20 06:30:17;;;;;;;12.80;3.30;;;;;;;;;;5086747;28;20410;-79
2022/01/20 06:32:43;;;;;;;17.77;3.63;;;;;;;;;;5081012;28;22056;-80
2022/01/20 06:35:09;;;;;;;19.10;3.53;;;;;;;;;;5085827;28;20921;-78
2022/01/20 06:37:36;;;;;;;14.43;3.70;;;;;;;;;;5086500;28;20755;-78
2022/01/20 06:40:02;;;;;;;14.57;3.17;;;;;;;;;;5068082;28;20519;-80
2022/01/20 06:42:28;;;;;;;12.93;3.03;;;;;;;;;;5079405;28;20829;-80
2022/01/20 06:44:54;;;;;;;14.35;3.38;;;;;;;;;;5076841;28;20414;-79
2022/01/20 06:47:21;;;;;;;13.70;3.70;;;;;;;;;;5054316;28;20413;-81
2022/01/20 06:49:47;;;;;;;19.27;3.67;;;;;;;;;;5068529;28;20427;-80
2022/01/20 06:52:13;;;;;;;14.07;3.55;;;;;;;;;;5078309;28;20754;-80
2022/01/20 06:54:39;;;;;;;15.75;3.53;;;;;;;;;;5069482;28;21006;-79
2022/01/20 06:57:05;;;;;;;14.32;3.30;;;;;;;;;;5071527;28;20418;-78
2022/01/20 06:59:31;;;;;;;15.13;3.88;;;;;;;;;;5072937;28;20475;-79
2022/01/20 07:01:57;;;;;;;17.42;3.25;;;;;;;;;;5090194;28;20417;-78
2022/01/20 07:04:26;;;;;;;20.38;3.55;;;;;;;;;;5055950;28;20421;-80
2022/01/20 07:06:53;;;;;;;15.18;3.50;;;;;;;;;;5083687;28;20804;-78
2022/01/20 07:09:19;;;;;;;17.80;3.72;;;;;;;;;;5085153;28;20434;-78
2022/01/20 07:11:45;;;;;;;20.90;3.88;;;;;;;;;;5076795;28;20574;-78
2022/01/20 07:14:11;;;;;;;17.15;3.85;;;;;;;;;;5069949;28;20422;-77
2022/01/20 07:16:37;;;;;;;18.30;4.32;;;;;;;;;;5086888;28;20417;-79
2022/01/20 07:19:04;;;;;;;19.70;3.92;;;;;;;;;;5086605;28;20410;-78
2022/01/20 07:21:30;;;;;;;17.80;3.50;;;;;;;;;;5072543;28;20414;-78
2022/01/20 07:23:56;;;;;;;22.33;3.53;;;;;;;;;;5082355;28;20422;-78
2022/01/20 07:26:22;;;;;;;17.70;3.92;;;;;;;;;;5090512;28;20413;-77
2022/01/20 07:28:48;;;;;;;17.70;4.07;;;;;;;;;;5065870;28;20428;-77
2022/01/20 07:31:16;;;;;;;18.08;3.65;;;;;;;;;;5090777;28;20812;-78
2022/01/20 07:33:44;;;;;;;17.90;3.90;;;;;;;;;;5068843;28;20515;-77
2022/01/20 07:36:10;;;;;;;19.33;4.00;;;;;;;;;;5066552;28;20422;-78
2022/01/20 07:38:36;;;;;;;20.05;4.07;;;;;;;;;;5076445;28;20412;-78
2022/01/20 07:41:02;;;;;;;24.65;4.32;;;;;;;;;;5073343;28;20429;-78
2022/01/20 07:43:29;;;;;;;21.50;4.60;;;;;;;;;;5071117;28;20455;-78
2022/01/20 07:45:55;;;;;;;15.80;3.53;;;;;;;;;;5072101;28;20413;-79
2022/01/20 07:48:21;;;;;;;16.58;3.95;;;;;;;;;;5051375;28;20498;-78
2022/01/20 07:50:47;;;;;;;18.83;4.32;;;;;;;;;;5049304;28;20430;-78
2022/01/20 07:53:13;;;;;;;14.77;4.10;;;;;;;;;;5071691;28;20421;-76
2022/01/20 07:55:39;;;;;;;22.40;4.15;;;;;;;;;;5085949;28;20487;-79
2022/01/20 07:58:06;;;;;;;17.00;4.13;;;;;;;;;;5090284;28;20875;-77
2022/01/20 08:00:32;;;;;;;17.30;4.07;;;;;;;;;;5085375;28;20405;-78
2022/01/20 08:02:58;;;;;;;22.13;4.18;;;;;;;;;;5095886;28;20494;-79
2022/01/20 08:05:24;;;;;;;19.45;4.10;;;;;;;;;;5086049;28;20487;-79
2022/01/20 08:07:50;;;;;;;17.33;4.20;;;;;;;;;;5068068;28;20461;-79
2022/01/20 08:10:16;;;;;;;19.42;4.15;;;;;;;;;;5079322;28;20938;-77
2022/01/20 08:12:43;;;;;;;19.48;3.65;;;;;;;;;;5068427;28;20453;-78
2022/01/20 08:15:12;;;;;;;18.08;3.78;;;;;;;;;;5089290;28;20418;-77
2022/01/20 08:17:38;;;;;;;21.15;4.07;;;;;;;;;;5081812;28;21107;-76
2022/01/20 08:20:05;;;;;;;15.77;4.15;;;;;;;;;;5068701;28;20419;-77
2022/01/20 08:22:34;;;;;;;15.77;3.72;;;;;;;;;;5072368;28;20444;-77
2022/01/20 08:25:00;;;;;;;17.88;4.43;;;;;;;;;;5113578;27;20504;-78
2022/01/20 08:27:26;;;;;;;19.27;4.22;;;;;;;;;;5071724;28;20418;-77
2022/01/20 08:29:52;;;;;;;19.80;4.22;;;;;;;;;;5089753;28;20526;-77
2022/01/20 08:32:19;;;;;;;17.15;3.90;;;;;;;;;;5090355;28;20446;-78
2022/01/20 08:34:45;;;;;;;17.63;3.85;;;;;;;;;;5092727;28;20414;-76
2022/01/20 08:37:11;;;;;;;20.40;4.40;;;;;;;;;;5087192;28;20495;-76
2022/01/20 08:39:42;;;;;;;20.55;4.43;;;;;;;;;;5073813;28;20484;-76
2022/01/20 08:42:08;;;;;;;16.40;3.78;;;;;;;;;;5091216;28;20398;-76
2022/01/20 08:44:35;;;;;;;20.73;4.28;;;;;;;;;;5095945;28;20425;-76
2022/01/20 08:47:02;;;;;;;20.90;4.45;;;;;;;;;;5091062;28;20434;-77
2022/01/20 08:49:29;;;;;;;18.95;4.05;;;;;;;;;;5089850;28;20433;-78
2022/01/20 08:51:55;;;;;;;18.52;4.28;;;;;;;;;;5063762;28;20423;-76
2022/01/20 08:54:21;;;;;;;17.83;3.47;;;;;;;;;;5068247;28;20422;-76
2022/01/20 08:56:50;;;;;;;13.50;3.55;;;;;;;;;;5073317;28;20422;-77
2022/01/20 08:59:16;;;;;;;14.90;3.05;;;;;;;;;;5075099;28;20418;-76
2022/01/20 09:01:43;;;;;;;18.05;3.42;;;;;;;;;;5071855;28;20984;-78
2022/01/20 09:04:09;;;;;;;16.10;3.15;;;;;;;;;;5087472;28;20550;-79
2022/01/20 09:06:35;;;;;;;15.18;3.17;;;;;;;;;;5083868;28;20426;-78
2022/01/20 09:09:01;;;;;;;16.83;3.17;;;;;;;;;;5087281;28;20417;-79
2022/01/20 09:11:35;;;;;;;15.00;3.20;;;;;;;;;;5088369;28;20951;-78
2022/01/20 09:16:46;;;;;;;18.30;3.40;;;;;;;;;;5075516;28;20467;-77
2022/01/20 09:19:12;;;;;;;12.32;3.25;;;;;;;;;;5090726;28;20940;-77
2022/01/20 09:21:39;;;;;;;16.42;3.13;;;;;;;;;;5085862;28;20406;-78
2022/01/20 09:24:06;;;;;;;14.83;3.57;;;;;;;;;;5065506;28;20414;-77
2022/01/20 09:26:32;;;;;;;18.38;3.67;;;;;;;;;;5067556;28;20702;-77
2022/01/20 09:28:58;;;;;;;16.58;3.35;;;;;;;;;;5075364;28;20427;-78
2022/01/20 09:31:26;;;;;;;14.05;3.13;;;;;;;;;;5089082;28;20423;-77
2022/01/20 09:33:53;;;;;;;16.85;3.15;;;;;;;;;;5084798;28;20424;-76
2022/01/20 09:36:20;;;;;;;15.13;3.28;;;;;;;;;;5083950;28;20453;-76
2022/01/20 09:38:46;;;;;;;11.82;3.30;;;;;;;;;;5072526;28;20441;-77
2022/01/20 09:41:12;;;;;;;13.18;3.15;;;;;;;;;;5087035;28;20603;-75
2022/01/20 09:43:38;;;;;;;16.20;3.25;;;;;;;;;;5050583;28;20517;-76
2022/01/20 09:46:05;;;;;;;16.60;3.70;;;;;;;;;;5065003;28;20415;-77
2022/01/20 09:48:34;;;;;;;15.63;2.80;;;;;;;;;;5092945;28;20851;-77
2022/01/20 09:51:00;;;;;;;15.82;3.17;;;;;;;;;;5088950;28;20492;-77
2022/01/20 09:53:30;;;;;;;16.35;3.53;;;;;;;;;;5081329;28;20434;-77
2022/01/20 09:55:57;;;;;;;13.27;3.60;;;;;;;;;;5084097;28;20423;-77
2022/01/20 09:58:23;;;;;;;16.98;3.55;;;;;;;;;;5085543;28;20417;-77
2022/01/20 10:00:51;;;;;;;16.42;3.60;;;;;;;;;;5087223;28;20427;-77
2022/01/20 10:03:19;;;;;;;16.42;3.50;;;;;;;;;;5067178;28;20425;-78
2022/01/20 10:05:45;;;;;;;16.03;3.43;;;;;;;;;;5089083;28;20425;-78
2022/01/20 10:08:16;;;;;;;13.50;3.08;;;;;;;;;;5083361;28;20422;-78
2022/01/20 10:10:46;;;;;;;15.60;3.57;;;;;;;;;;5087846;28;20436;-75
2022/01/20 10:13:12;;;;;;;15.23;3.55;;;;;;;;;;5072090;28;20422;-77
2022/01/20 10:15:39;;;;;;;16.63;3.63;;;;;;;;;;5062907;28;20427;-76
2022/01/20 10:18:08;;;;;;;14.75;3.08;;;3.70;99.90;;;;;;5072793;28;20417;-77
2022/01/20 10:20:34;;;;;;;16.50;3.13;;;;;;;;;;5068425;28;20413;-78
2022/01/20 10:23:00;;;;;;;12.05;3.22;;;;;;;;;;5072340;28;20424;-78
2022/01/20 10:25:26;;;;;;;11.05;2.42;;;;;;;;;;5066604;28;20407;-78
2022/01/20 10:27:54;;;;;;;8.63;2.00;;;;;;;;;;5071805;28;20429;-79
2022/01/20 10:30:24;;;;;;;9.00;2.08;;;;;;;;;;5086104;28;20411;-77
2022/01/20 10:32:51;;;;;;;9.00;1.98;;;;;;;;;;5088027;28;20410;-77
2022/01/20 10:35:19;;;;;;;11.15;2.92;;;;;;;;;;5088166;28;20766;-78
2022/01/20 10:37:59;;;;;;;9.63;2.65;;;;;;;;;;5084384;28;20938;-78
2022/01/20 10:40:25;;;;;;;13.35;3.03;;;;;;;;;;5092016;28;20416;-78
2022/01/20 10:42:51;;;;;;;13.07;2.67;;;;;;;;;;5088171;28;20750;-78
2022/01/20 10:45:28;;;;;;;18.77;3.45;;;;;;;;;;5093871;28;20817;-76
2022/01/20 10:47:55;;;;;;;13.90;2.95;;;;;;;;;;5092784;28;20771;-76
2022/01/20 10:50:24;;;;;;;15.27;3.53;;;;;;;;;;5091633;28;20425;-77
2022/01/20 10:52:52;;;;;;;13.75;2.95;;;;;;;;;;5070011;28;20833;-76
2022/01/20 10:55:23;;;;;;;13.10;3.50;;;;;;;;;;5089642;28;20422;-76
2022/01/20 10:57:50;;;;;;;14.90;3.38;;;;;;;;;;5087346;28;20495;-76
2022/01/20 11:00:19;;;;;;;14.73;3.23;;;;;;;;;;5085200;28;20462;-76
2022/01/20 11:02:56;;;;;;;15.00;3.10;;;;;;;;;;5085770;28;20416;-76
2022/01/20 11:05:22;;;;;;;13.23;3.08;;;3.70;99.90;;;;;;5072703;28;20417;-76
2022/01/20 11:07:49;;;;;;;14.50;3.10;;;;;;;;;;5085341;28;20449;-77
2022/01/20 11:10:16;;;;;;;11.93;2.97;;;;;;;;;;5085232;28;20406;-77
2022/01/20 11:12:43;;;;;;;14.57;3.40;;;;;;;;;;5064585;28;20862;-75
2022/01/20 11:15:11;;;;;;;12.63;3.10;;;;;;;;;;5071264;28;20443;-76
2022/01/20 11:17:40;;;;;;;16.05;3.63;;;3.30;99.90;;;;;;5082535;28;20420;-75
2022/01/20 11:20:08;;;;;;;16.05;3.72;;;;;;;;;;5070163;28;20505;-75
2022/01/20 11:22:35;;;;;;;17.13;3.75;;;;;;;;;;5093374;28;21935;-76
2022/01/20 11:25:04;;;;;;;13.23;3.63;;;;;;;;;;5072637;28;20425;-76
2022/01/20 11:27:36;;;;;;;16.00;3.65;;;;;;;;;;5086365;28;20770;-75
2022/01/20 11:30:12;;;;;;;13.67;3.60;;;;;;;;;;5108288;28;20449;-77
2022/01/20 11:32:38;;;;;;;16.17;4.03;;;;;;;;;;5087935;28;20766;-76
2022/01/20 11:35:06;;;;;;;17.50;3.83;;;;;;;;;;5085978;28;20454;-78
2022/01/20 11:37:34;;;;;;;17.40;4.17;;;;;;;;;;5068555;28;20470;-78
2022/01/20 11:40:27;;;;;;;15.35;3.60;;;;;;;;;;5086982;28;20501;-77
2022/01/20 11:43:09;;;;;;;13.53;3.63;;;;;;;;;;5111890;28;20505;-77
2022/01/20 11:45:40;;;;;;;16.50;3.50;;;;;;;;;;5091680;28;20416;-77
2022/01/20 11:48:13;;;;;;;13.95;3.17;;;;;;;;;;5088292;28;20449;-77
2022/01/20 11:50:39;;;;;;;19.90;3.78;;;;;;;;;;5084370;28;20410;-78
2022/01/20 11:53:11;;;;;;;20.90;3.75;;;;;;;;;;5086711;28;20418;-78
2022/01/20 11:55:45;;;;;;;25.63;5.07;;;;;;;;;;5065258;28;20762;-78
2022/01/20 11:58:12;;;;;;;23.15;4.97;;;;;;;;;;5111202;27;20415;-78
2022/01/20 12:00:38;;;;;;;22.38;4.63;;;;;;;;;;5068890;28;20833;-76
2022/01/20 12:03:12;;;;;;;19.25;4.03;;;;;;;;;;5088032;28;20775;-75
2022/01/20 12:05:39;;;;;;;15.73;3.95;;;;;;;;;;5071596;28;20410;-77
2022/01/20 12:08:14;;;;;;;14.95;3.75;;;4.70;99.90;;;;;;5063485;28;20506;-76
2022/01/20 12:10:41;;;;;;;15.73;3.63;;;;;;;;;;5069857;28;20843;-77
2022/01/20 12:13:08;;;;;;;16.67;3.85;;;;;;;;;;5073135;28;20439;-76
2022/01/20 12:15:34;;;;;;;15.77;3.55;;;;;;;;;;5076177;28;20467;-76
2022/01/20 12:18:00;;;;;;;15.23;3.75;;;;;;;;;;5072000;28;20461;-76
2022/01/20 12:20:27;;;;;;;18.13;3.97;;;;;;;;;;5096823;28;20582;-77
2022/01/20 12:22:54;;;;;;;17.77;3.33;;;;;;;;;;5072216;28;20414;-77
2022/01/20 12:25:26;;;;;;;15.50;3.88;;;;;;;;;;5088019;28;20429;-76
2022/01/20 12:28:01;;;;;;;14.95;3.53;;;;;;;;;;5087273;28;20425;-76
2022/01/20 12:30:27;;;;;;;13.05;3.55;;;;;;;;;;5079452;28;20431;-76
2022/01/20 12:32:58;;;;;;;12.93;2.97;;;;;;;;;;5068588;28;20418;-77
2022/01/20 12:35:24;;;;;;;13.13;3.03;;;;;;;;;;5081248;28;20488;-75
2022/01/20 12:37:50;;;;;;;14.30;3.75;;;;;;;;;;5079652;28;20425;-76
2022/01/20 12:40:21;;;;;;;12.73;3.40;;;;;;;;;;5068819;28;20429;-76
2022/01/20 12:42:48;;;;;;;13.20;3.03;;;;;;;;;;5114925;27;20414;-75
2022/01/20 12:48:12;;;;;;;14.30;3.35;;;;;;;;;;5086490;28;20455;-77
2022/01/20 12:50:38;;;;;;;13.13;3.58;;;;;;;;;;5069657;28;20417;-77
2022/01/20 12:53:05;;;;;;;15.00;3.40;;;;;;;;;;5068215;28;20935;-79
2022/01/20 12:55:31;;;;;;;17.80;3.40;;;;;;;;;;5072164;28;20421;-76
2022/01/20 12:58:00;;;;;;;16.75;3.00;;;;;;;;;;5087508;28;20882;-75
2022/01/20 13:00:26;;;;;;;13.23;3.17;;;;;;;;;;5086363;28;20421;-75
2022/01/20 13:02:53;;;;;;;14.65;2.75;;;;;;;;;;5080137;28;20723;-77
2022/01/20 13:05:20;;;;;;;13.47;3.23;;;;;;;;;;5074188;28;20492;-76
2022/01/20 13:07:51;;;;;;;19.52;3.53;;;;;;;;;;5082564;28;20414;-77
2022/01/20 13:10:22;;;;;;;12.80;3.28;;;;;;;;;;5078859;28;20470;-76
2022/01/20 13:12:51;;;;;;;14.85;4.03;;;;;;;;;;5082269;28;20422;-76
2022/01/20 13:15:17;;;;;;;16.67;3.50;;;;;;;;;;5065840;28;20418;-75
2022/01/20 13:17:44;;;;;;;15.65;3.33;;;;;;;;;;5066831;28;20968;-76
2022/01/20 13:20:19;;;;;;;15.50;3.10;;;;;;;;;;5086742;28;20450;-75
2022/01/20 13:22:56;;;;;;;12.80;3.33;;;;;;;;;;5073806;28;20545;-77
2022/01/20 13:25:23;;;;;;;11.80;3.03;;;;;;;;;;5094754;28;20433;-77
2022/01/20 13:27:54;;;;;;;13.38;3.17;;;;;;;;;;5073159;28;20475;-76
2022/01/20 13:30:40;;;;;;;15.48;2.95;;;;;;;;;;5088107;28;20931;-78
2022/01/20 13:33:15;;;;;;;13.18;2.80;;;;;;;;;;5113134;27;20484;-78
2022/01/20 13:35:42;;;;;;;14.20;3.57;;;;;;;;;;5079175;28;23017;-76
2022/01/20 13:38:09;;;;;;;17.83;3.50;;;;;;;;;;5089026;28;20489;-76
2022/01/20 13:40:36;;;;;;;16.75;3.67;;;;;;;;;;5082351;28;20456;-76
2022/01/20 13:45:40;;;;;;;16.30;3.63;;;;;;;;;;5086908;28;20409;-75
2022/01/20 13:48:06;;;;;;;14.50;3.33;;;;;;;;;;5072641;28;20442;-74
2022/01/20 13:50:36;;;;;;;18.15;3.22;;;;;;;;;;5081479;28;21067;-74
2022/01/20 13:53:13;;;;;;;15.65;3.38;;;;;;;;;;5077696;28;20437;-75
2022/01/20 13:55:40;;;;;;;14.25;3.08;;;;;;;;;;5083971;28;20418;-74
2022/01/20 13:58:07;;;;;;;16.15;4.05;;;;;;;;;;5078878;28;20485;-75
2022/01/20 14:00:40;;;;;;;12.05;2.78;;;;;;;;;;5065605;28;20476;-76
2022/01/20 14:03:07;;;;;;;14.75;3.20;;;;;;;;;;5086905;28;20467;-75
2022/01/20 14:05:33;;;;;;;13.75;3.25;;;;;;;;;;5085381;28;20420;-76
2022/01/20 14:08:00;;;;;;;13.75;2.90;;;;;;;;;;5087707;28;20757;-77
2022/01/20 14:10:29;;;;;;;15.43;3.10;;;;;;;;;;5070955;28;20467;-77
2022/01/20 14:12:56;;;;;;;14.98;2.72;;;;;;;;;;5071312;28;20460;-78
2022/01/20 14:15:25;;;;;;;10.88;2.13;;;;;;;;;;5109710;27;20417;-77
2022/01/20 14:17:54;;;;;;;14.63;2.65;;;;;;;;;;5086997;28;20423;-77
2022/01/20 14:20:23;;;;;;;10.18;2.35;;;;;;;;;;5085927;28;20421;-78
2022/01/20 14:22:50;;;;;;;15.27;3.20;;;;;;;;;;5069173;28;20532;-76
2022/01/20 14:25:16;;;;;;;15.02;2.78;;;;;;;;;;5088115;28;20486;-77
2022/01/20 14:27:42;;;;;;;13.52;3.03;;;;;;;;;;5050363;28;20418;-77
2022/01/20 14:30:10;;;;;;;16.02;3.25;;;;;;;;;;5099386;28;20418;-77
2022/01/20 14:32:36;;;;;;;12.38;2.80;;;;;;;;;;5082751;28;20424;-76
2022/01/20 14:35:02;;;;;;;11.45;2.70;;;;;;;;;;5086582;28;20414;-76
2022/01/20 14:37:28;;;;;;;13.33;2.93;;;;;;;;;;5087643;28;20444;-77
2022/01/20 14:39:55;;;;;;;17.15;3.75;;;;;;;;;;5085893;28;20513;-77
2022/01/20 14:42:21;;;;;;;16.13;3.80;;;;;;;;;;5063862;28;20464;-76
2022/01/20 14:44:47;;;;;;;13.32;3.17;;;;;;;;;;5071058;28;20439;-76
2022/01/20 14:47:14;;;;;;;11.77;3.17;;;;;;;;;;5086091;28;20946;-75
2022/01/20 14:49:40;;;;;;;19.98;4.45;;;;;;;;;;5087494;28;20433;-76
2022/01/20 14:52:07;;;;;;;16.63;3.38;;;;;;;;;;5084022;28;20780;-76
2022/01/20 14:54:33;;;;;;;16.13;3.50;;;;;;;;;;5082227;28;20426;-76
2022/01/20 14:57:00;;;;;;;17.95;3.90;;;;;;;;;;5077690;28;20427;-77
2022/01/20 14:59:27;;;;;;;13.90;3.43;;;;;;;;;;5062519;28;20410;-78
2022/01/20 15:01:53;;;;;;;20.55;3.55;;;;;;;;;;5080224;28;20416;-77
2022/01/20 15:04:19;;;;;;;17.38;3.47;;;;;;;;;;5078448;28;20412;-77
2022/01/20 15:06:45;;;;;;;14.20;2.30;;;;;;;;;;5083926;28;20510;-76
2022/01/20 15:09:11;;;;;;;14.57;3.00;;;;;;;;;;5067826;28;20452;-76
2022/01/20 15:11:37;;;;;;;15.20;2.90;;;;;;;;;;5070527;28;20428;-76
2022/01/20 15:14:04;;;;;;;13.82;3.17;;;;;;;;;;5067978;28;20461;-76
2022/01/20 15:16:30;;;;;;;16.40;3.15;;;;;;;;;;5071993;28;20511;-76
2022/01/20 15:18:57;;;;;;;16.95;3.70;;;;;;;;;;5086878;28;20409;-76
2022/01/20 15:21:25;;;;;;;17.60;3.20;;;;;;;;;;5086741;28;20448;-75
2022/01/20 15:23:51;;;;;;;14.23;3.90;;;;;;;;;;5068147;28;20932;-74
2022/01/20 15:26:18;;;;;;;13.80;3.03;;;;;;;;;;5086263;28;20905;-77
2022/01/20 15:28:47;;;;;;;23.60;4.07;;;;;;;;;;5084244;28;20424;-76
2022/01/20 15:31:14;;;;;;;19.77;3.67;;;;;;;;;;5053447;28;20422;-76
2022/01/20 15:33:41;;;;;;;20.08;3.17;;;;;;;;;;5085080;28;20434;-77
2022/01/20 15:36:10;;;;;;;19.00;3.53;;;;;;;;;;5098343;28;20428;-77